createdAt,value
2022-12-25T00:02:21.705Z,2.23
2022-12-25T00:04:48.720Z,2.24
2022-12-25T00:07:15.328Z,2.23
2022-12-25T00:09:42.203Z,2.19
2022-12-25T00:12:08.885Z,2.19
2022-12-25T00:14:35.563Z,2.18
2022-12-25T00:17:02.304Z,2.20
2022-12-25T00:19:28.850Z,2.22
2022-12-25T00:21:55.538Z,2.23
2022-12-25T00:24:22.172Z,2.24
2022-12-25T00:26:48.748Z,2.24
2022-12-25T00:29:15.443Z,2.22
2022-12-25T00:31:42.223Z,2.17
2022-12-25T00:34:08.942Z,2.17
2022-12-25T00:36:41.422Z,2.16
2022-12-25T00:39:08.741Z,2.12
2022-12-25T00:41:54.021Z,2.10
2022-12-25T00:44:20.865Z,2.02
2022-12-25T00:46:47.536Z,2.00
2022-12-25T00:49:14.175Z,1.99
2022-12-25T00:51:40.811Z,2.00
2022-12-25T00:54:07.734Z,2.03
2022-12-25T00:56:34.693Z,2.08
2022-12-25T00:59:01.395Z,2.11
2022-12-25T01:01:28.174Z,2.10
2022-12-25T01:03:55.143Z,2.13
2022-12-25T01:06:21.754Z,2.17
2022-12-25T01:09:06.738Z,2.23
2022-12-25T01:11:33.573Z,2.24
2022-12-25T01:14:00.390Z,2.26
2022-12-25T01:16:27.366Z,2.30
2022-12-25T01:18:54.666Z,2.33
2022-12-25T01:21:22.150Z,2.34
2022-12-25T01:23:51.899Z,2.37
2022-12-25T01:26:21.163Z,2.38
2022-12-25T01:28:48.790Z,2.36
2022-12-25T01:31:18.551Z,2.36
2022-12-25T01:33:46.132Z,2.36
2022-12-25T01:36:24.368Z,2.36
2022-12-25T01:38:52.830Z,2.37
2022-12-25T01:41:22.253Z,2.37
2022-12-25T01:44:07.583Z,2.39
2022-12-25T01:46:35.442Z,2.40
2022-12-25T01:49:06.136Z,2.43
2022-12-25T01:51:41.257Z,2.46
2022-12-25T01:54:17.300Z,2.47
2022-12-25T01:56:47.501Z,2.46
2022-12-25T01:59:16.968Z,2.43
2022-12-25T02:01:43.996Z,2.41
2022-12-25T02:04:47.824Z,2.38
2022-12-25T02:07:20.144Z,2.31
2022-12-25T02:09:47.610Z,2.31
2022-12-25T02:12:21.058Z,2.26
2022-12-25T02:14:49.692Z,2.22
2022-12-25T02:17:37.740Z,2.23
2022-12-25T02:20:38.369Z,2.18
2022-12-25T02:23:29.389Z,2.14
2022-12-25T02:26:16.092Z,2.13
2022-12-25T02:29:10.109Z,2.16
2022-12-25T02:31:54.945Z,2.15
2022-12-25T02:34:42.352Z,2.16
2022-12-25T02:37:14.548Z,2.20
2022-12-25T02:40:19.527Z,2.25
2022-12-25T02:43:25.057Z,2.28
2022-12-25T02:46:15.653Z,2.30
2022-12-25T02:49:08.965Z,2.33
2022-12-25T02:51:58.709Z,2.36
2022-12-25T02:55:08.470Z,2.41
2022-12-25T02:58:01.192Z,2.41
2022-12-25T03:00:49.016Z,2.46
2022-12-25T03:03:35.618Z,2.48
2022-12-25T03:06:23.570Z,2.51
2022-12-25T03:09:15.340Z,2.54
2022-12-25T03:11:45.044Z,2.52
2022-12-25T03:14:30.018Z,2.53
2022-12-25T03:16:58.870Z,2.48
2022-12-25T03:19:48.107Z,2.45
2022-12-25T03:22:48.433Z,2.39
2022-12-25T03:25:35.653Z,2.32
2022-12-25T03:28:03.544Z,2.29
2022-12-25T03:31:01.994Z,2.30
2022-12-25T03:33:45.178Z,2.29
2022-12-25T03:36:33.188Z,2.31
2022-12-25T03:39:29.671Z,2.33
2022-12-25T03:42:18.719Z,2.35
2022-12-25T03:44:53.787Z,2.35
2022-12-25T03:47:34.524Z,2.36
2022-12-25T03:50:27.071Z,2.37
2022-12-25T03:53:17.110Z,2.39
2022-12-25T03:56:02.943Z,2.39
2022-12-25T03:58:48.213Z,2.36
2022-12-25T04:01:33.667Z,2.33
2022-12-25T04:04:19.078Z,2.33
2022-12-25T04:07:04.513Z,2.33
2022-12-25T04:09:50.264Z,2.35
2022-12-25T04:12:35.672Z,2.39
2022-12-25T04:15:21.137Z,2.41
2022-12-25T04:18:10.671Z,2.42
2022-12-25T04:20:55.708Z,2.43
2022-12-25T04:23:41.018Z,2.48
2022-12-25T04:26:26.286Z,2.52
2022-12-25T04:29:11.599Z,2.56
2022-12-25T04:31:57.356Z,2.58
2022-12-25T04:34:42.301Z,2.59
2022-12-25T04:37:09.040Z,2.60
2022-12-25T04:39:35.674Z,2.64
2022-12-25T04:42:02.315Z,2.68
2022-12-25T04:44:29.059Z,2.72
2022-12-25T04:46:55.752Z,2.74
2022-12-25T04:49:22.529Z,2.76
2022-12-25T04:51:49.124Z,2.75
2022-12-25T04:54:15.971Z,2.77
2022-12-25T04:56:45.814Z,2.80
2022-12-25T04:59:12.864Z,2.83
2022-12-25T05:01:40.269Z,2.86
2022-12-25T05:04:06.997Z,2.88
2022-12-25T05:06:33.700Z,2.88
2022-12-25T05:09:00.338Z,2.86
2022-12-25T05:11:27.081Z,2.86
2022-12-25T05:13:53.653Z,2.86
2022-12-25T05:16:20.906Z,2.85
2022-12-25T05:18:48.993Z,2.85
2022-12-25T05:21:16.076Z,2.86
2022-12-25T05:23:47.838Z,2.86
2022-12-25T05:26:16.640Z,2.87
2022-12-25T05:28:43.411Z,2.85
2022-12-25T05:31:10.755Z,2.85
2022-12-25T05:33:37.481Z,2.84
2022-12-25T05:36:05.390Z,2.82
2022-12-25T05:38:32.575Z,2.80
2022-12-25T05:40:59.310Z,2.80
2022-12-25T05:43:26.836Z,2.82
2022-12-25T05:45:53.854Z,2.82
2022-12-25T05:48:20.515Z,2.84
2022-12-25T05:50:47.124Z,2.83
2022-12-25T05:53:15.153Z,2.83
2022-12-25T05:55:45.583Z,2.82
2022-12-25T05:58:13.059Z,2.82
2022-12-25T06:00:40.394Z,2.83
2022-12-25T06:03:07.165Z,2.83
2022-12-25T06:05:33.877Z,2.83
2022-12-25T06:08:00.489Z,2.81
2022-12-25T06:10:27.153Z,2.84
2022-12-25T06:12:54.398Z,2.81
2022-12-25T06:15:21.036Z,2.74
2022-12-25T06:17:47.624Z,2.63
2022-12-25T06:20:14.306Z,2.55
2022-12-25T06:22:40.944Z,2.51
2022-12-25T06:25:08.479Z,2.47
2022-12-25T06:27:35.242Z,2.46
2022-12-25T06:30:02.425Z,2.45
2022-12-25T06:32:29.025Z,2.46
2022-12-25T06:34:55.705Z,2.45
2022-12-25T06:37:22.277Z,2.44
2022-12-25T06:39:48.940Z,2.46
2022-12-25T06:42:15.556Z,2.46
2022-12-25T06:44:42.258Z,2.46
2022-12-25T06:47:08.868Z,2.48
2022-12-25T06:49:35.589Z,2.50
2022-12-25T06:52:02.543Z,2.51
2022-12-25T06:54:29.351Z,2.51
2022-12-25T06:56:55.870Z,2.50
2022-12-25T06:59:22.646Z,2.51
2022-12-25T07:01:52.237Z,2.51
2022-12-25T07:04:35.177Z,2.48
2022-12-25T07:07:08.340Z,2.43
2022-12-25T07:09:38.036Z,2.43
2022-12-25T07:12:17.276Z,2.41
2022-12-25T07:14:45.078Z,2.40
2022-12-25T07:17:11.699Z,2.37
2022-12-25T07:19:44.503Z,2.35
2022-12-25T07:22:12.744Z,2.33
2022-12-25T07:24:39.495Z,2.25
2022-12-25T07:27:06.549Z,2.24
2022-12-25T07:29:33.792Z,2.19
2022-12-25T07:32:00.533Z,2.15
2022-12-25T07:34:27.270Z,2.15
2022-12-25T07:36:54.621Z,2.17
2022-12-25T07:39:21.461Z,2.19
2022-12-25T07:41:48.139Z,2.21
2022-12-25T07:44:15.600Z,2.23
2022-12-25T07:46:42.817Z,2.24
2022-12-25T07:49:10.687Z,2.27
2022-12-25T07:51:37.427Z,2.29
2022-12-25T07:54:04.588Z,2.33
2022-12-25T07:56:31.310Z,2.35
2022-12-25T07:58:57.916Z,2.36
2022-12-25T08:01:26.515Z,2.35
2022-12-25T08:03:59.507Z,2.38
2022-12-25T08:06:30.214Z,2.42
2022-12-25T08:09:01.719Z,2.46
2022-12-25T08:11:28.539Z,2.49
2022-12-25T08:13:55.173Z,2.54
2022-12-25T08:16:22.235Z,2.57
2022-12-25T08:18:49.068Z,2.62
2022-12-25T08:21:16.145Z,2.64
2022-12-25T08:23:45.321Z,2.67
2022-12-25T08:26:15.424Z,2.67
2022-12-25T08:28:42.161Z,2.71
2022-12-25T08:31:16.748Z,2.76
2022-12-25T08:33:44.138Z,2.79
2022-12-25T08:36:12.620Z,2.84
2022-12-25T08:38:40.342Z,2.88
2022-12-25T08:41:07.570Z,2.91
2022-12-25T08:43:34.456Z,2.91
2022-12-25T08:46:01.361Z,2.95
2022-12-25T08:48:28.251Z,2.99
2022-12-25T08:50:55.118Z,3.04
2022-12-25T08:53:22.545Z,3.07
2022-12-25T08:55:49.636Z,3.11
2022-12-25T08:58:16.358Z,3.14
2022-12-25T09:00:43.002Z,3.17
2022-12-25T09:03:09.688Z,3.18
2022-12-25T09:05:36.947Z,3.21
2022-12-25T09:08:03.969Z,3.22
2022-12-25T09:10:30.833Z,3.25
2022-12-25T09:12:57.619Z,3.28
2022-12-25T09:15:24.242Z,3.28
2022-12-25T09:17:51.016Z,3.28
2022-12-25T09:20:17.617Z,3.29
2022-12-25T09:22:44.413Z,3.33
2022-12-25T09:25:11.711Z,3.35
2022-12-25T09:27:38.714Z,3.37
2022-12-25T09:30:06.611Z,3.37
2022-12-25T09:32:33.306Z,3.38
2022-12-25T09:34:59.887Z,3.40
2022-12-25T09:37:27.443Z,3.42
2022-12-25T09:39:54.086Z,3.41
2022-12-25T09:42:24.793Z,3.40
2022-12-25T09:44:57.127Z,3.41
2022-12-25T09:47:28.432Z,3.40
2022-12-25T09:50:07.084Z,3.38
2022-12-25T09:52:33.891Z,3.33
2022-12-25T09:55:07.831Z,3.35
2022-12-25T09:57:34.432Z,3.38
2022-12-25T10:00:01.094Z,3.36
2022-12-25T10:02:52.747Z,3.36
2022-12-25T10:05:43.782Z,3.32
2022-12-25T10:08:25.889Z,3.27
2022-12-25T10:11:15.481Z,3.27
2022-12-25T10:14:13.894Z,3.29
2022-12-25T10:17:05.275Z,3.29
2022-12-25T10:19:44.921Z,3.29
2022-12-25T10:22:19.978Z,3.29
2022-12-25T10:24:53.582Z,3.29
2022-12-25T10:27:26.234Z,3.28
2022-12-25T10:29:54.297Z,3.26
2022-12-25T10:32:21.959Z,3.26
2022-12-25T10:34:49.213Z,3.28
2022-12-25T10:37:16.873Z,3.30
2022-12-25T10:39:46.697Z,3.33
2022-12-25T10:42:40.391Z,3.31
2022-12-25T10:45:09.460Z,3.30
2022-12-25T10:47:42.326Z,3.33
2022-12-25T10:50:09.412Z,3.35
2022-12-25T10:52:51.464Z,3.35
2022-12-25T10:55:26.574Z,3.30
2022-12-25T10:57:57.243Z,3.22
2022-12-25T11:00:30.058Z,3.18
2022-12-25T11:02:57.503Z,3.11
2022-12-25T11:05:35.709Z,3.10
2022-12-25T11:08:03.676Z,3.10
2022-12-25T11:10:41.672Z,3.11
2022-12-25T11:13:28.765Z,3.12
2022-12-25T11:16:04.565Z,3.12
2022-12-25T11:18:49.568Z,3.09
2022-12-25T11:21:21.659Z,3.06
2022-12-25T11:23:54.957Z,3.07
2022-12-25T11:26:22.013Z,3.06
2022-12-25T11:28:50.758Z,3.07
2022-12-25T11:31:20.632Z,3.07
2022-12-25T11:34:02.846Z,3.06
2022-12-25T11:36:44.176Z,3.06
2022-12-25T11:39:34.932Z,3.02
2022-12-25T11:42:05.716Z,3.00
2022-12-25T11:44:45.158Z,3.01
2022-12-25T11:47:30.214Z,2.99
2022-12-25T11:50:35.069Z,2.97
2022-12-25T11:53:09.348Z,2.92
2022-12-25T11:55:54.060Z,2.96
2022-12-25T11:58:37.058Z,2.95
2022-12-25T12:01:16.565Z,2.95
2022-12-25T12:03:44.381Z,2.94
2022-12-25T12:06:32.292Z,2.92
2022-12-25T12:09:24.017Z,2.89
2022-12-25T12:12:04.716Z,2.82
2022-12-25T12:14:33.977Z,2.85
2022-12-25T12:17:00.727Z,2.85
2022-12-25T12:19:29.973Z,2.86
2022-12-25T12:21:59.731Z,2.89
2022-12-25T12:24:35.527Z,2.90
2022-12-25T12:27:12.865Z,2.88
2022-12-25T12:29:43.635Z,2.88
2022-12-25T12:32:33.480Z,2.93
2022-12-25T12:35:08.591Z,2.94
2022-12-25T12:37:38.425Z,2.96
2022-12-25T12:40:08.492Z,2.96
2022-12-25T12:42:45.739Z,2.96
2022-12-25T12:45:31.440Z,2.97
2022-12-25T12:47:58.771Z,2.97
2022-12-25T12:50:40.360Z,2.95
2022-12-25T12:53:21.733Z,2.85
2022-12-25T12:55:49.164Z,2.80
2022-12-25T12:58:35.072Z,2.82
2022-12-25T13:01:10.713Z,2.79
2022-12-25T13:03:52.232Z,2.77
2022-12-25T13:06:33.703Z,2.61
2022-12-25T13:09:28.291Z,2.64
2022-12-25T13:11:55.140Z,2.60
2022-12-25T13:14:23.830Z,2.60
2022-12-25T13:16:54.342Z,2.66
2022-12-25T13:19:26.931Z,2.68
2022-12-25T13:21:58.676Z,2.71
2022-12-25T13:24:28.212Z,2.75
2022-12-25T13:26:55.115Z,2.78
2022-12-25T13:29:36.538Z,2.80
2022-12-25T13:32:06.602Z,2.77
2022-12-25T13:34:42.076Z,2.76
2022-12-25T13:37:13.119Z,2.78
2022-12-25T13:40:04.571Z,2.80
2022-12-25T13:42:37.105Z,2.79
2022-12-25T13:45:21.549Z,2.81
2022-12-25T13:47:54.862Z,2.75
2022-12-25T13:50:29.991Z,2.69
2022-12-25T13:53:09.139Z,2.67
2022-12-25T13:55:36.308Z,2.69
2022-12-25T13:58:07.103Z,2.73
2022-12-25T14:00:52.539Z,2.76
2022-12-25T14:03:24.173Z,2.76
2022-12-25T14:06:05.414Z,2.79
2022-12-25T14:08:34.838Z,2.80
2022-12-25T14:11:05.028Z,2.83
2022-12-25T14:13:37.306Z,2.88
2022-12-25T14:16:04.841Z,2.92
2022-12-25T14:18:32.740Z,2.95
2022-12-25T14:21:02.789Z,2.96
2022-12-25T14:23:40.780Z,2.98
2022-12-25T14:26:24.685Z,2.98
2022-12-25T14:28:54.432Z,2.96
2022-12-25T14:31:23.354Z,2.97
2022-12-25T14:33:53.313Z,2.95
2022-12-25T14:36:20.656Z,3.01
2022-12-25T14:39:05.213Z,3.04
2022-12-25T14:41:38.284Z,3.06
2022-12-25T14:44:25.928Z,3.05
2022-12-25T14:47:18.972Z,3.02
2022-12-25T14:49:46.438Z,3.01
2022-12-25T14:52:18.918Z,3.05
2022-12-25T14:54:49.056Z,3.08
2022-12-25T14:57:39.792Z,3.10
2022-12-25T15:00:25.326Z,3.09
2022-12-25T15:02:54.943Z,3.07
2022-12-25T15:05:25.223Z,3.10
2022-12-25T15:07:59.139Z,3.14
2022-12-25T15:10:59.054Z,3.16
2022-12-25T15:13:15.077Z,3.18
2022-12-25T15:15:49.987Z,3.20
2022-12-25T15:18:18.385Z,3.22
2022-12-25T15:20:45.348Z,3.26
2022-12-25T15:23:20.033Z,3.27
2022-12-25T15:25:48.017Z,3.30
2022-12-25T15:28:14.849Z,3.30
2022-12-25T15:30:41.821Z,3.30
2022-12-25T15:33:14.803Z,3.27
2022-12-25T15:35:43.740Z,3.21
2022-12-25T15:38:12.046Z,3.21
2022-12-25T15:40:39.278Z,3.22
2022-12-25T15:43:11.341Z,3.20
2022-12-25T15:45:49.104Z,3.19
2022-12-25T15:48:15.793Z,3.22
2022-12-25T15:50:43.596Z,3.22
2022-12-25T15:53:10.810Z,3.18
2022-12-25T15:55:38.264Z,3.15
2022-12-25T15:58:04.905Z,3.17
2022-12-25T16:00:31.638Z,3.19
2022-12-25T16:02:58.621Z,3.20
2022-12-25T16:05:26.657Z,3.20
2022-12-25T16:07:53.291Z,3.22
2022-12-25T16:10:20.241Z,3.24
2022-12-25T16:12:46.868Z,3.27
2022-12-25T16:15:14.915Z,3.29
2022-12-25T16:17:41.631Z,3.32
2022-12-25T16:20:09.103Z,3.33
2022-12-25T16:22:39.365Z,3.34
2022-12-25T16:25:18.598Z,3.31
2022-12-25T16:27:45.952Z,3.27
2022-12-25T16:30:15.990Z,3.28
2022-12-25T16:32:43.585Z,3.27
2022-12-25T16:35:11.483Z,3.31
2022-12-25T16:37:38.538Z,3.33
2022-12-25T16:40:07.781Z,3.33
2022-12-25T16:42:35.496Z,3.32
2022-12-25T16:45:03.211Z,3.36
2022-12-25T16:47:30.039Z,3.40
2022-12-25T16:49:56.625Z,3.43
2022-12-25T16:52:23.314Z,3.42
2022-12-25T16:54:49.851Z,3.44
2022-12-25T16:57:16.564Z,3.45
2022-12-25T16:59:43.098Z,3.46
2022-12-25T17:02:16.148Z,3.47
2022-12-25T17:04:44.386Z,3.47
2022-12-25T17:07:13.087Z,3.47
2022-12-25T17:09:44.134Z,3.47
2022-12-25T17:12:11.234Z,3.47
2022-12-25T17:14:37.885Z,3.47
2022-12-25T17:17:04.821Z,3.47
2022-12-25T17:19:31.647Z,3.44
2022-12-25T17:21:59.279Z,3.46
2022-12-25T17:24:26.792Z,3.47
2022-12-25T17:26:53.688Z,3.45
2022-12-25T17:29:22.631Z,3.43
2022-12-25T17:31:50.887Z,3.40
2022-12-25T17:34:17.934Z,3.41
2022-12-25T17:36:44.847Z,3.42
2022-12-25T17:39:12.370Z,3.49
2022-12-25T17:41:39.059Z,3.50
2022-12-25T17:44:05.776Z,3.52
2022-12-25T17:46:32.598Z,3.54
2022-12-25T17:49:00.769Z,3.56
2022-12-25T17:51:29.824Z,3.57
2022-12-25T17:53:59.812Z,3.59
2022-12-25T17:56:26.641Z,3.60
2022-12-25T17:58:56.565Z,3.64
2022-12-25T18:01:24.811Z,3.67
2022-12-25T18:03:52.136Z,3.69
2022-12-25T18:06:21.487Z,3.66
2022-12-25T18:08:49.479Z,3.67
2022-12-25T18:11:19.715Z,3.65
2022-12-25T18:13:49.284Z,3.63
2022-12-25T18:16:17.334Z,3.64
2022-12-25T18:18:51.404Z,3.67
2022-12-25T18:21:21.168Z,3.71
2022-12-25T18:23:48.399Z,3.74
2022-12-25T18:26:15.274Z,3.74
2022-12-25T18:28:43.436Z,3.76
2022-12-25T18:31:13.086Z,3.77
2022-12-25T18:33:40.201Z,3.78
2022-12-25T18:36:11.382Z,3.80
2022-12-25T18:38:37.977Z,3.81
2022-12-25T18:41:06.835Z,3.83
2022-12-25T18:43:53.807Z,3.87
2022-12-25T18:46:23.193Z,3.88
2022-12-25T18:48:49.928Z,3.91
2022-12-25T18:51:17.167Z,3.92
2022-12-25T18:53:44.014Z,3.93
2022-12-25T18:56:16.789Z,3.90
2022-12-25T18:58:44.358Z,3.85
2022-12-25T19:01:16.855Z,3.82
2022-12-25T19:03:44.745Z,3.78
2022-12-25T19:06:19.072Z,3.77
2022-12-25T19:08:45.986Z,3.72
2022-12-25T19:11:13.135Z,3.71
2022-12-25T19:13:40.140Z,3.72
2022-12-25T19:16:07.030Z,3.76
2022-12-25T19:18:33.827Z,3.79
2022-12-25T19:21:02.309Z,3.82
2022-12-25T19:23:29.055Z,3.83
2022-12-25T19:25:55.786Z,3.78
2022-12-25T19:28:24.400Z,3.80
2022-12-25T19:30:53.312Z,3.83
2022-12-25T19:33:21.488Z,3.84
2022-12-25T19:35:48.480Z,3.88
2022-12-25T19:38:15.728Z,3.93
2022-12-25T19:40:59.522Z,3.93
2022-12-25T19:43:32.756Z,3.93
2022-12-25T19:46:01.196Z,3.90
2022-12-25T19:48:30.653Z,3.89
2022-12-25T19:50:57.830Z,3.92
2022-12-25T19:53:25.159Z,3.97
2022-12-25T19:55:53.003Z,4.01
2022-12-25T19:58:21.421Z,4.00
2022-12-25T20:01:04.781Z,3.99
2022-12-25T20:03:32.603Z,4.00
2022-12-25T20:05:59.605Z,3.98
2022-12-25T20:08:26.367Z,4.01
2022-12-25T20:10:52.992Z,4.06
2022-12-25T20:13:19.894Z,4.08
2022-12-25T20:15:47.486Z,4.06
2022-12-25T20:18:14.152Z,4.10
2022-12-25T20:20:40.877Z,4.12
2022-12-25T20:23:07.536Z,4.08
2022-12-25T20:25:38.867Z,4.06
2022-12-25T20:28:05.701Z,4.06
2022-12-25T20:30:36.971Z,4.09
2022-12-25T20:33:03.693Z,4.10
2022-12-25T20:35:30.336Z,4.08
2022-12-25T20:37:57.061Z,4.09
2022-12-25T20:40:24.014Z,4.10
2022-12-25T20:42:53.725Z,4.09
2022-12-25T20:45:20.359Z,4.12
2022-12-25T20:47:47.099Z,4.10
2022-12-25T20:50:13.729Z,4.11
2022-12-25T20:52:40.285Z,4.11
2022-12-25T20:55:07.435Z,4.15
2022-12-25T20:57:34.082Z,4.15
2022-12-25T21:00:00.784Z,4.17
2022-12-25T21:02:34.793Z,4.19
2022-12-25T21:05:06.379Z,4.16
2022-12-25T21:07:33.597Z,4.19
2022-12-25T21:10:00.311Z,4.19
2022-12-25T21:12:27.265Z,4.15
2022-12-25T21:14:53.947Z,4.13
2022-12-25T21:17:20.662Z,4.10
2022-12-25T21:19:47.399Z,4.06
2022-12-25T21:22:14.333Z,4.06
2022-12-25T21:24:40.985Z,4.04
2022-12-25T21:27:08.747Z,4.06
2022-12-25T21:29:35.423Z,4.05
2022-12-25T21:32:20.451Z,4.08
2022-12-25T21:34:47.014Z,4.04
2022-12-25T21:37:13.622Z,3.95
2022-12-25T21:39:40.359Z,3.99
2022-12-25T21:42:07.307Z,4.00
2022-12-25T21:44:34.045Z,4.01
2022-12-25T21:47:00.625Z,3.98
2022-12-25T21:49:45.757Z,3.93
2022-12-25T21:52:12.389Z,3.88
2022-12-25T21:54:39.022Z,3.88
2022-12-25T21:57:05.596Z,3.87
2022-12-25T21:59:32.183Z,3.89
2022-12-25T22:01:59.057Z,3.90
2022-12-25T22:04:26.389Z,3.96
2022-12-25T22:07:11.706Z,3.95
2022-12-25T22:09:38.521Z,3.98
2022-12-25T22:12:28.597Z,4.01
2022-12-25T22:15:08.911Z,4.01
2022-12-25T22:17:56.367Z,3.98
2022-12-25T22:20:31.035Z,3.97
2022-12-25T22:22:57.936Z,3.97
2022-12-25T22:25:25.395Z,4.01
2022-12-25T22:27:52.640Z,3.98
2022-12-25T22:30:24.814Z,3.99
2022-12-25T22:32:52.022Z,3.98
2022-12-25T22:35:19.474Z,4.01
2022-12-25T22:37:47.542Z,4.06
2022-12-25T22:40:15.889Z,4.04
2022-12-25T22:42:42.531Z,4.04
2022-12-25T22:45:10.387Z,4.02
2022-12-25T22:47:37.516Z,3.96
2022-12-25T22:50:05.605Z,3.95
2022-12-25T22:52:32.469Z,3.94
2022-12-25T22:54:59.176Z,3.97
2022-12-25T22:57:26.018Z,3.94
2022-12-25T22:59:53.162Z,3.97
2022-12-25T23:02:20.625Z,3.96
2022-12-25T23:04:47.563Z,3.97
2022-12-25T23:07:15.188Z,3.98
2022-12-25T23:09:43.000Z,4.01
2022-12-25T23:12:33.496Z,4.02
2022-12-25T23:15:00.140Z,3.94
2022-12-25T23:17:45.481Z,3.94
2022-12-25T23:20:33.251Z,3.94
2022-12-25T23:23:19.965Z,3.90
2022-12-25T23:26:05.298Z,3.91
2022-12-25T23:28:50.887Z,3.91
2022-12-25T23:31:18.030Z,3.92
2022-12-25T23:33:44.777Z,3.95
2022-12-25T23:36:11.458Z,3.98
2022-12-25T23:38:38.148Z,4.05
2022-12-25T23:41:05.481Z,4.06
2022-12-25T23:43:32.165Z,4.09
2022-12-25T23:45:59.096Z,4.11
2022-12-25T23:48:25.983Z,4.12
2022-12-25T23:50:52.668Z,4.11
2022-12-25T23:53:19.253Z,4.07
2022-12-25T23:55:50.131Z,4.08
2022-12-25T23:58:21.956Z,4.07
